createdAt,value
2023-04-08T00:00:12.066Z,101913.28
2023-04-08T00:02:39.131Z,101917.56
2023-04-08T00:05:06.910Z,101908.94
2023-04-08T00:07:33.798Z,101913.28
2023-04-08T00:10:00.395Z,101917.56
2023-04-08T00:12:27.203Z,101915.88
2023-04-08T00:14:53.807Z,101920.16
2023-04-08T00:17:20.599Z,101927.03
2023-04-08T00:19:47.416Z,101927.03
2023-04-08T00:22:14.017Z,101925.31
2023-04-08T00:24:41.015Z,101923.59
2023-04-08T00:27:07.827Z,101928.78
2023-04-08T00:29:34.525Z,101925.34
2023-04-08T00:32:01.111Z,101930.53
2023-04-08T00:34:27.797Z,101927.94
2023-04-08T00:36:54.434Z,101930.53
2023-04-08T00:39:21.208Z,101930.53
2023-04-08T00:41:47.784Z,101930.53
2023-04-08T00:44:14.377Z,101934.88
2023-04-08T00:46:43.733Z,101940.88
2023-04-08T00:49:10.564Z,101934.84
2023-04-08T00:51:37.222Z,101939.19
2023-04-08T00:54:05.213Z,101940.94
2023-04-08T00:56:32.996Z,101947.91
2023-04-08T00:59:00.921Z,101941.88
2023-04-08T01:02:09.979Z,101941.88
2023-04-08T01:05:08.506Z,101949.59
2023-04-08T01:07:40.486Z,101953.13
2023-04-08T01:10:21.370Z,101957.50
2023-04-08T01:12:55.367Z,101955.03
2023-04-08T01:15:22.538Z,101949.88
2023-04-08T01:17:53.182Z,101955.91
2023-04-08T01:20:20.645Z,101953.31
2023-04-08T01:23:22.356Z,101946.41
2023-04-08T01:25:55.710Z,101950.72
2023-04-08T01:28:25.348Z,101946.38
2023-04-08T01:30:54.914Z,101953.28
2023-04-08T01:33:22.563Z,101948.97
2023-04-08T01:35:51.284Z,101957.59
2023-04-08T01:38:20.573Z,101961.91
2023-04-08T01:40:48.222Z,101954.13
2023-04-08T01:43:18.407Z,101961.03
2023-04-08T01:45:47.035Z,101955.84
2023-04-08T01:48:14.879Z,101957.56
2023-04-08T01:50:45.760Z,101957.56
2023-04-08T01:53:13.413Z,101953.28
2023-04-08T01:55:42.156Z,101951.59
2023-04-08T01:58:12.413Z,101956.81
2023-04-08T02:00:42.910Z,101956.84
2023-04-08T02:03:13.375Z,101955.09
2023-04-08T02:05:43.343Z,101952.59
2023-04-08T02:08:09.970Z,101960.34
2023-04-08T02:10:38.729Z,101951.72
2023-04-08T02:13:05.746Z,101956.91
2023-04-08T02:15:36.371Z,101955.25
2023-04-08T02:18:12.574Z,101956.97
2023-04-08T02:20:48.482Z,101957.81
2023-04-08T02:23:22.337Z,101965.59
2023-04-08T02:28:19.099Z,101970.81
2023-04-08T02:30:54.867Z,101958.78
2023-04-08T02:33:23.422Z,101964.84
2023-04-08T02:35:54.993Z,101970.94
2023-04-08T02:38:22.144Z,101969.25
2023-04-08T02:40:51.414Z,101969.31
2023-04-08T02:43:18.333Z,101966.78
2023-04-08T02:45:45.659Z,101969.41
2023-04-08T02:48:12.975Z,101968.56
2023-04-08T02:50:40.804Z,101969.47
2023-04-08T02:53:08.761Z,101967.78
2023-04-08T02:55:35.516Z,101975.53
2023-04-08T02:58:02.141Z,101969.56
2023-04-08T03:00:28.850Z,101971.31
2023-04-08T03:02:55.744Z,101968.75
2023-04-08T03:05:22.492Z,101968.75
2023-04-08T03:07:49.062Z,101970.47
2023-04-08T03:10:15.987Z,101971.38
2023-04-08T03:12:42.554Z,101964.50
2023-04-08T03:15:09.629Z,101966.25
2023-04-08T03:17:36.370Z,101974.06
2023-04-08T03:20:07.025Z,101975.81
2023-04-08T03:22:34.433Z,101975.84
2023-04-08T03:25:01.012Z,101975.06
2023-04-08T03:27:27.625Z,101975.94
2023-04-08T03:29:54.282Z,101969.03
2023-04-08T03:32:21.158Z,101972.50
2023-04-08T03:34:50.213Z,101975.13
2023-04-08T03:37:22.456Z,101984.59
2023-04-08T03:39:49.450Z,101979.50
2023-04-08T03:42:16.154Z,101979.53
2023-04-08T03:44:42.781Z,101983.00
2023-04-08T03:47:09.346Z,101989.06
2023-04-08T03:49:36.352Z,101986.56
2023-04-08T03:52:02.948Z,101983.13
2023-04-08T03:54:29.523Z,101990.91
2023-04-08T03:56:56.593Z,101994.41
2023-04-08T03:59:23.345Z,101992.69
2023-04-08T04:01:51.580Z,101999.59
2023-04-08T04:04:18.853Z,101991.00
2023-04-08T04:06:45.875Z,101991.91
2023-04-08T04:09:12.779Z,101997.06
2023-04-08T04:11:39.604Z,101989.31
2023-04-08T04:14:06.220Z,101989.31
2023-04-08T04:16:33.197Z,101997.06
2023-04-08T04:19:00.105Z,102006.56
2023-04-08T04:21:27.411Z,101999.69
2023-04-08T04:23:54.205Z,102003.16
2023-04-08T04:26:21.310Z,102004.88
2023-04-08T04:28:48.150Z,102008.38
2023-04-08T04:31:26.640Z,102011.81
2023-04-08T04:33:53.577Z,102019.59
2023-04-08T04:36:20.260Z,102025.63
2023-04-08T04:38:49.627Z,102036.81
2023-04-08T04:41:17.161Z,102028.19
2023-04-08T04:43:43.776Z,102034.25
2023-04-08T04:46:12.889Z,102030.78
2023-04-08T04:48:39.537Z,102032.47
2023-04-08T04:51:07.710Z,102035.03
2023-04-08T04:53:34.479Z,102028.97
2023-04-08T04:56:03.666Z,102024.66
2023-04-08T04:58:30.965Z,102027.25
2023-04-08T05:00:57.864Z,102030.69
2023-04-08T05:03:25.131Z,102037.59
2023-04-08T05:05:53.251Z,102029.00
2023-04-08T05:08:22.717Z,102042.75
2023-04-08T05:10:50.935Z,102038.44
2023-04-08T05:13:18.689Z,102049.63
2023-04-08T05:15:47.805Z,102054.78
2023-04-08T05:18:14.980Z,102053.91
2023-04-08T05:20:41.745Z,102055.59
2023-04-08T05:23:08.951Z,102055.63
2023-04-08T05:25:35.806Z,102055.59
2023-04-08T05:28:05.894Z,102059.06
2023-04-08T05:30:34.940Z,102059.97
2023-04-08T05:33:01.952Z,102063.41
2023-04-08T05:35:29.383Z,102060.81
2023-04-08T05:37:56.500Z,102067.72
2023-04-08T05:40:23.197Z,102068.56
2023-04-08T05:42:49.986Z,102066.78
2023-04-08T05:45:16.819Z,102075.38
2023-04-08T05:47:43.752Z,102074.50
2023-04-08T05:50:11.694Z,102082.25
2023-04-08T05:52:43.798Z,102085.72
2023-04-08T05:55:11.366Z,102084.88
2023-04-08T05:57:38.212Z,102085.78
2023-04-08T06:00:10.819Z,102087.47
2023-04-08T06:02:39.941Z,102090.06
2023-04-08T06:05:07.053Z,102093.50
2023-04-08T06:07:34.473Z,102095.22
2023-04-08T06:10:01.305Z,102091.78
2023-04-08T06:12:27.963Z,102093.44
2023-04-08T06:14:57.431Z,102102.91
2023-04-08T06:17:24.057Z,102102.00
2023-04-08T06:19:50.742Z,102099.38
2023-04-08T06:22:17.517Z,102101.09
2023-04-08T06:24:44.172Z,102100.19
2023-04-08T06:27:10.828Z,102104.44
2023-04-08T06:29:37.428Z,102106.16
2023-04-08T06:32:04.441Z,102118.22
2023-04-08T06:34:31.116Z,102113.88
2023-04-08T06:36:57.704Z,102118.22
2023-04-08T06:39:24.561Z,102115.66
2023-04-08T06:41:51.381Z,102115.63
2023-04-08T06:44:18.368Z,102125.09
2023-04-08T06:46:44.935Z,102125.94
2023-04-08T06:49:13.040Z,102126.78
2023-04-08T06:51:39.641Z,102128.50
2023-04-08T06:54:06.295Z,102130.25
2023-04-08T06:56:32.924Z,102131.94
2023-04-08T06:58:59.687Z,102137.09
2023-04-08T07:01:26.561Z,102137.97
2023-04-08T07:03:53.302Z,102142.31
2023-04-08T07:06:19.915Z,102144.97
2023-04-08T07:08:46.579Z,102151.88
2023-04-08T07:11:13.230Z,102156.19
2023-04-08T07:13:41.924Z,102151.94
2023-04-08T07:16:08.589Z,102157.25
2023-04-08T07:18:35.651Z,102151.19
2023-04-08T07:21:02.572Z,102152.91
2023-04-08T07:23:29.217Z,102165.81
2023-04-08T07:25:55.861Z,102164.09
2023-04-08T07:28:22.529Z,102170.13
2023-04-08T07:30:49.126Z,102166.75
2023-04-08T07:33:16.298Z,102171.94
2023-04-08T07:35:43.081Z,102177.09
2023-04-08T07:38:11.722Z,102185.72
2023-04-08T07:40:38.347Z,102182.38
2023-04-08T07:43:05.002Z,102185.91
2023-04-08T07:45:31.808Z,102193.66
2023-04-08T07:47:58.559Z,102185.09
2023-04-08T07:50:25.252Z,102187.63
2023-04-08T07:52:53.442Z,102186.69
2023-04-08T07:55:20.506Z,102194.34
2023-04-08T07:57:47.464Z,102200.38
2023-04-08T08:00:20.935Z,102202.13
2023-04-08T08:02:48.819Z,102206.44
2023-04-08T08:05:15.628Z,102203.00
2023-04-08T08:07:42.505Z,102209.03
2023-04-08T08:10:09.970Z,102214.22
2023-04-08T08:12:36.792Z,102215.00
2023-04-08T08:15:06.332Z,102220.22
2023-04-08T08:17:35.731Z,102222.88
2023-04-08T08:20:04.415Z,102216.75
2023-04-08T08:22:31.003Z,102219.25
2023-04-08T08:24:58.235Z,102227.00
2023-04-08T08:27:26.185Z,102226.13
2023-04-08T08:29:53.085Z,102228.72
2023-04-08T08:32:19.865Z,102225.22
2023-04-08T08:34:46.634Z,102234.66
2023-04-08T08:37:13.245Z,102240.59
2023-04-08T08:39:40.315Z,102240.47
2023-04-08T08:42:19.249Z,102236.09
2023-04-08T08:44:45.939Z,102235.13
2023-04-08T08:47:12.573Z,102234.28
2023-04-08T08:49:39.251Z,102233.47
2023-04-08T08:52:07.079Z,102227.41
2023-04-08T08:54:33.724Z,102225.59
2023-04-08T08:57:00.597Z,102232.44
2023-04-08T08:59:27.866Z,102230.69
2023-04-08T09:01:54.533Z,102229.69
2023-04-08T09:04:23.065Z,102242.72
2023-04-08T09:07:08.907Z,102234.91
2023-04-08T09:09:51.851Z,102231.53
2023-04-08T09:12:19.137Z,102232.34
2023-04-08T09:14:46.575Z,102234.09
2023-04-08T09:17:13.278Z,102239.19
2023-04-08T09:19:40.620Z,102245.28
2023-04-08T09:22:09.087Z,102249.53
2023-04-08T09:24:37.468Z,102245.16
2023-04-08T09:27:05.804Z,102236.31
2023-04-08T09:29:35.241Z,102247.44
2023-04-08T09:32:03.735Z,102251.59
2023-04-08T09:34:34.588Z,102253.25
2023-04-08T09:37:01.567Z,102263.69
2023-04-08T09:39:28.184Z,102261.13
2023-04-08T09:41:59.200Z,102260.06
2023-04-08T09:44:28.769Z,102259.22
2023-04-08T09:47:01.569Z,102255.78
2023-04-08T09:49:28.197Z,102255.03
2023-04-08T09:52:05.371Z,102257.69
2023-04-08T09:54:37.239Z,102259.31
2023-04-08T09:57:13.891Z,102256.66
2023-04-08T09:59:49.627Z,102258.34
2023-04-08T10:02:22.622Z,102264.06
2023-04-08T10:04:52.679Z,102254.53
2023-04-08T10:07:19.445Z,102245.63
2023-04-08T10:09:46.417Z,102245.66
2023-04-08T10:12:13.063Z,102239.44
2023-04-08T10:14:39.712Z,102248.75
2023-04-08T10:17:27.658Z,102246.84
2023-04-08T10:19:54.970Z,102248.41
2023-04-08T10:22:33.943Z,102252.63
2023-04-08T10:25:16.936Z,102255.31
2023-04-08T10:27:45.176Z,102248.16
2023-04-08T10:30:31.953Z,102251.44
2023-04-08T10:33:00.418Z,102251.47
2023-04-08T10:35:36.766Z,102248.03
2023-04-08T10:38:04.009Z,102253.22
2023-04-08T10:40:39.175Z,102261.34
2023-04-08T10:43:06.222Z,102263.22
2023-04-08T10:45:33.363Z,102258.88
2023-04-08T10:48:11.920Z,102261.31
2023-04-08T10:50:38.501Z,102248.31
2023-04-08T10:53:05.144Z,102239.75
2023-04-08T10:55:32.435Z,102244.66
2023-04-08T10:58:17.699Z,102238.44
2023-04-08T11:00:44.388Z,102236.66
2023-04-08T11:03:13.715Z,102246.06
2023-04-08T11:05:42.134Z,102239.25
2023-04-08T11:08:08.750Z,102236.78
2023-04-08T11:10:39.181Z,102235.34
2023-04-08T11:13:10.034Z,102237.28
2023-04-08T11:15:37.478Z,102243.41
2023-04-08T11:18:06.084Z,102235.06
2023-04-08T11:20:37.228Z,102242.00
2023-04-08T11:23:03.915Z,102236.84
2023-04-08T11:25:30.723Z,102235.91
2023-04-08T11:27:57.628Z,102239.38
2023-04-08T11:30:24.622Z,102235.06
2023-04-08T11:32:54.033Z,102230.59
2023-04-08T11:35:20.965Z,102239.91
2023-04-08T11:37:49.864Z,102233.75
2023-04-08T11:40:22.021Z,102230.03
2023-04-08T11:42:48.911Z,102227.28
2023-04-08T11:45:20.086Z,102234.25
2023-04-08T11:47:47.786Z,102235.84
2023-04-08T11:50:24.860Z,102235.81
2023-04-08T11:52:52.765Z,102238.38
2023-04-08T11:55:30.407Z,102235.78
2023-04-08T11:58:02.132Z,102243.59
2023-04-08T12:00:28.758Z,102253.81
2023-04-08T12:02:55.892Z,102246.19
2023-04-08T12:05:22.535Z,102251.22
2023-04-08T12:07:49.171Z,102252.00
2023-04-08T12:10:16.246Z,102246.88
2023-04-08T12:12:42.877Z,102250.38
2023-04-08T12:15:10.230Z,102246.91
2023-04-08T12:17:39.070Z,102243.16
2023-04-08T12:20:06.746Z,102252.50
2023-04-08T12:22:33.767Z,102243.75
2023-04-08T12:25:00.470Z,102247.47
2023-04-08T12:27:27.061Z,102256.97
2023-04-08T12:29:53.645Z,102253.66
2023-04-08T12:32:20.622Z,102248.47
2023-04-08T12:34:47.480Z,102245.78
2023-04-08T12:37:14.123Z,102239.47
2023-04-08T12:39:40.783Z,102245.22
2023-04-08T12:42:07.359Z,102247.69
2023-04-08T12:44:33.979Z,102243.34
2023-04-08T12:47:00.593Z,102246.22
2023-04-08T12:49:28.153Z,102257.06
2023-04-08T12:51:55.219Z,102244.13
2023-04-08T12:54:21.918Z,102241.47
2023-04-08T12:56:49.106Z,102236.34
2023-04-08T12:59:16.193Z,102246.66
2023-04-08T13:01:43.380Z,102229.25
2023-04-08T13:04:10.223Z,102233.47
2023-04-08T13:06:36.875Z,102236.97
2023-04-08T13:09:03.787Z,102243.81
2023-04-08T13:11:34.237Z,102236.34
2023-04-08T13:14:00.895Z,102240.53
2023-04-08T13:16:27.874Z,102232.50
2023-04-08T13:18:54.522Z,102235.13
2023-04-08T13:21:21.551Z,102238.63
2023-04-08T13:23:48.583Z,102233.47
2023-04-08T13:26:15.206Z,102238.00
2023-04-08T13:28:55.875Z,102226.69
2023-04-08T13:31:29.360Z,102231.78
2023-04-08T13:33:58.229Z,102228.31
2023-04-08T13:36:25.125Z,102222.38
2023-04-08T13:38:52.194Z,102223.91
2023-04-08T13:41:21.252Z,102226.56
2023-04-08T13:43:47.883Z,102225.69
2023-04-08T13:46:18.601Z,102225.56
2023-04-08T13:48:46.091Z,102227.31
2023-04-08T13:51:12.751Z,102231.81
2023-04-08T13:53:39.368Z,102227.59
2023-04-08T13:56:06.213Z,102225.88
2023-04-08T13:58:32.822Z,102221.75
2023-04-08T14:00:59.435Z,102222.66
2023-04-08T14:03:26.919Z,102222.53
2023-04-08T14:05:53.932Z,102222.38
2023-04-08T14:08:25.722Z,102219.69
2023-04-08T14:11:01.481Z,102226.56
2023-04-08T14:13:28.184Z,102222.91
2023-04-08T14:15:58.471Z,102221.19
2023-04-08T14:18:25.969Z,102216.00
2023-04-08T14:20:52.774Z,102220.34
2023-04-08T14:23:19.348Z,102220.41
2023-04-08T14:25:45.933Z,102220.34
2023-04-08T14:28:12.698Z,102216.97
2023-04-08T14:30:39.306Z,102212.53
2023-04-08T14:33:06.409Z,102208.88
2023-04-08T14:35:33.158Z,102210.59
2023-04-08T14:38:00.356Z,102216.50
2023-04-08T14:40:26.967Z,102208.59
2023-04-08T14:42:54.081Z,102208.69
2023-04-08T14:45:20.845Z,102212.19
2023-04-08T14:47:47.486Z,102214.03
2023-04-08T14:50:14.216Z,102203.84
2023-04-08T14:52:41.122Z,102212.56
2023-04-08T14:55:07.978Z,102202.22
2023-04-08T14:57:35.019Z,102214.38
2023-04-08T15:00:02.023Z,102211.84
2023-04-08T15:02:29.090Z,102212.69
2023-04-08T15:04:56.123Z,102211.88
2023-04-08T15:07:22.833Z,102221.53
2023-04-08T15:09:49.407Z,102218.00
2023-04-08T15:12:16.024Z,102212.63
2023-04-08T15:14:42.599Z,102210.00
2023-04-08T15:17:10.328Z,102213.31
2023-04-08T15:19:36.979Z,102207.25
2023-04-08T15:22:04.126Z,102210.78
2023-04-08T15:24:30.763Z,102208.97
2023-04-08T15:26:59.542Z,102211.53
2023-04-08T15:29:26.286Z,102214.09
2023-04-08T15:31:52.905Z,102215.03
2023-04-08T15:34:19.476Z,102220.34
2023-04-08T15:36:47.529Z,102213.50
2023-04-08T15:39:14.265Z,102216.91
2023-04-08T15:41:40.889Z,102205.66
2023-04-08T15:44:07.505Z,102214.47
2023-04-08T15:46:35.557Z,102221.31
2023-04-08T15:49:03.948Z,102211.84
2023-04-08T15:51:30.568Z,102223.09
2023-04-08T15:53:57.966Z,102219.47
2023-04-08T15:56:24.763Z,102227.34
2023-04-08T15:58:52.403Z,102223.13
2023-04-08T16:01:20.381Z,102223.09
2023-04-08T16:03:47.092Z,102223.19
2023-04-08T16:06:13.885Z,102214.59
2023-04-08T16:08:40.761Z,102219.78
2023-04-08T16:11:08.247Z,102216.22
2023-04-08T16:13:35.129Z,102210.06
2023-04-08T16:16:04.318Z,102214.31
2023-04-08T16:18:31.239Z,102209.13
2023-04-08T16:20:58.025Z,102208.28
2023-04-08T16:23:25.044Z,102208.38
2023-04-08T16:25:52.289Z,102206.78
2023-04-08T16:28:18.891Z,102203.22
2023-04-08T16:30:48.004Z,102203.16
2023-04-08T16:33:15.088Z,102197.88
2023-04-08T16:35:42.143Z,102216.03
2023-04-08T16:38:09.179Z,102208.28
2023-04-08T16:40:35.795Z,102216.16
2023-04-08T16:43:04.590Z,102209.31
2023-04-08T16:45:32.759Z,102219.72
2023-04-08T16:48:00.709Z,102221.41
2023-04-08T16:50:28.627Z,102213.75
2023-04-08T16:52:55.365Z,102216.38
2023-04-08T16:55:25.095Z,102217.34
2023-04-08T16:57:51.747Z,102222.53
2023-04-08T17:00:21.023Z,102220.94
2023-04-08T17:02:47.982Z,102221.94
2023-04-08T17:05:14.729Z,102225.38
2023-04-08T17:07:41.380Z,102223.69
2023-04-08T17:10:08.678Z,102225.34
2023-04-08T17:12:36.441Z,102225.34
2023-04-08T17:15:03.743Z,102227.09
2023-04-08T17:17:30.499Z,102226.25
2023-04-08T17:19:57.202Z,102222.69
2023-04-08T17:22:23.795Z,102229.59
2023-04-08T17:24:50.422Z,102233.88
2023-04-08T17:27:17.237Z,102225.16
2023-04-08T17:29:46.153Z,102222.56
2023-04-08T17:32:13.389Z,102226.03
2023-04-08T17:34:41.160Z,102228.75
2023-04-08T17:37:08.287Z,102229.69
2023-04-08T17:39:40.841Z,102227.91
2023-04-08T17:42:08.457Z,102224.53
2023-04-08T17:44:35.991Z,102232.28
2023-04-08T17:47:03.842Z,102233.22
2023-04-08T17:49:30.525Z,102241.94
2023-04-08T17:51:58.267Z,102246.28
2023-04-08T17:54:25.165Z,102249.75
2023-04-08T17:56:51.914Z,102244.63
2023-04-08T17:59:18.630Z,102246.38
2023-04-08T18:01:45.381Z,102251.63
2023-04-08T18:04:12.890Z,102261.13
2023-04-08T18:06:39.705Z,102253.38
2023-04-08T18:09:06.283Z,102259.41
2023-04-08T18:11:33.022Z,102256.78
2023-04-08T18:13:59.672Z,102264.63
2023-04-08T18:16:26.276Z,102264.66
2023-04-08T18:18:52.949Z,102264.69
2023-04-08T18:21:19.898Z,102270.72
2023-04-08T18:23:49.618Z,102277.66
2023-04-08T18:26:16.627Z,102275.06
2023-04-08T18:28:43.280Z,102277.69
2023-04-08T18:31:10.334Z,102271.66
2023-04-08T18:33:39.406Z,102278.53
2023-04-08T18:36:10.675Z,102281.19
2023-04-08T18:38:38.422Z,102270.78
2023-04-08T18:41:05.051Z,102274.28
2023-04-08T18:43:34.387Z,102272.50
2023-04-08T18:46:03.492Z,102270.78
2023-04-08T18:48:30.437Z,102273.31
2023-04-08T18:50:57.704Z,102275.06
2023-04-08T18:53:24.374Z,102275.97
2023-04-08T18:55:53.813Z,102279.41
2023-04-08T18:58:23.026Z,102287.22
2023-04-08T19:00:49.727Z,102275.97
2023-04-08T19:03:16.464Z,102275.97
2023-04-08T19:05:43.186Z,102276.81
2023-04-08T19:08:09.786Z,102283.72
2023-04-08T19:10:38.643Z,102288.91
2023-04-08T19:13:05.418Z,102283.69
2023-04-08T19:15:32.162Z,102282.84
2023-04-08T19:17:59.248Z,102285.44
2023-04-08T19:20:28.664Z,102283.72
2023-04-08T19:22:57.790Z,102296.66
2023-04-08T19:25:24.368Z,102292.31
2023-04-08T19:27:51.268Z,102291.38
2023-04-08T19:30:17.935Z,102288.78
2023-04-08T19:32:46.612Z,102292.28
2023-04-08T19:35:13.599Z,102297.44
2023-04-08T19:37:40.633Z,102300.16
2023-04-08T19:40:08.730Z,102299.28
2023-04-08T19:42:35.628Z,102298.56
2023-04-08T19:45:02.776Z,102293.38
2023-04-08T19:47:29.772Z,102303.75
2023-04-08T19:49:58.353Z,102296.81
2023-04-08T19:52:25.180Z,102304.59
2023-04-08T19:54:52.380Z,102296.03
2023-04-08T19:57:19.979Z,102298.59
2023-04-08T19:59:48.792Z,102302.03
2023-04-08T20:02:15.727Z,102304.69
2023-04-08T20:04:42.640Z,102303.81
2023-04-08T20:07:09.484Z,102310.78
2023-04-08T20:09:36.245Z,102308.19
2023-04-08T20:12:06.170Z,102311.72
2023-04-08T20:14:34.130Z,102307.38
2023-04-08T20:17:00.807Z,102308.25
2023-04-08T20:19:27.419Z,102316.00
2023-04-08T20:21:54.265Z,102314.28
2023-04-08T20:24:20.869Z,102316.06
2023-04-08T20:26:47.741Z,102312.56
2023-04-08T20:29:14.409Z,102309.19
2023-04-08T20:31:41.104Z,102317.84
2023-04-08T20:34:08.635Z,102317.78
2023-04-08T20:36:35.484Z,102321.25
2023-04-08T20:39:02.556Z,102323.00
2023-04-08T20:41:29.599Z,102322.16
2023-04-08T20:43:56.216Z,102325.59
2023-04-08T20:46:23.255Z,102321.28
2023-04-08T20:48:50.412Z,102322.13
2023-04-08T20:51:17.670Z,102313.50
2023-04-08T20:53:44.646Z,102316.09
2023-04-08T20:56:11.508Z,102320.38
2023-04-08T20:58:38.138Z,102317.78
2023-04-08T21:01:04.915Z,102314.38
2023-04-08T21:03:31.628Z,102314.38
2023-04-08T21:05:58.739Z,102314.34
2023-04-08T21:08:25.589Z,102315.22
2023-04-08T21:10:54.264Z,102314.34
2023-04-08T21:13:21.608Z,102312.63
2023-04-08T21:15:48.260Z,102309.19
2023-04-08T21:18:14.882Z,102314.34
2023-04-08T21:20:44.585Z,102312.56
2023-04-08T21:23:11.221Z,102316.88
2023-04-08T21:25:37.768Z,102310.88
2023-04-08T21:28:04.349Z,102316.06
2023-04-08T21:30:30.955Z,102317.78
2023-04-08T21:32:58.071Z,102309.16
2023-04-08T21:35:24.685Z,102312.59
2023-04-08T21:37:51.599Z,102318.69
2023-04-08T21:40:18.297Z,102318.69
2023-04-08T21:42:46.086Z,102317.78
2023-04-08T21:45:12.773Z,102316.09
2023-04-08T21:47:39.476Z,102316.09
2023-04-08T21:50:06.993Z,102312.66
2023-04-08T21:52:33.856Z,102325.66
2023-04-08T21:55:01.025Z,102322.19
2023-04-08T21:57:28.176Z,102321.38
2023-04-08T21:59:54.743Z,102318.75
2023-04-08T22:02:21.745Z,102318.81
2023-04-08T22:04:49.022Z,102319.72
2023-04-08T22:07:18.009Z,102305.88
2023-04-08T22:09:44.848Z,102307.59
2023-04-08T22:12:11.636Z,102318.00
2023-04-08T22:14:38.256Z,102312.72
2023-04-08T22:17:05.782Z,102310.16
2023-04-08T22:19:32.486Z,102316.28
2023-04-08T22:21:59.068Z,102312.88
2023-04-08T22:24:27.742Z,102312.84
2023-04-08T22:26:54.641Z,102318.03
2023-04-08T22:29:21.338Z,102316.31
2023-04-08T22:31:47.997Z,102307.72
2023-04-08T22:34:14.647Z,102315.63
2023-04-08T22:36:41.740Z,102316.53
2023-04-08T22:39:08.669Z,102309.78
2023-04-08T22:41:35.594Z,102311.44
2023-04-08T22:44:02.278Z,102313.13
2023-04-08T22:46:28.968Z,102302.75
2023-04-08T22:48:55.748Z,102313.13
2023-04-08T22:51:22.675Z,102304.47
2023-04-08T22:53:49.441Z,102308.88
2023-04-08T22:56:16.207Z,102306.34
2023-04-08T22:58:42.886Z,102306.38
2023-04-08T23:01:14.909Z,102302.94
2023-04-08T23:03:41.947Z,102299.50
2023-04-08T23:06:08.774Z,102297.91
2023-04-08T23:08:35.669Z,102297.13
2023-04-08T23:11:02.292Z,102299.75
2023-04-08T23:13:29.251Z,102295.41
2023-04-08T23:15:55.987Z,102293.69
2023-04-08T23:18:22.686Z,102295.47
2023-04-08T23:20:52.988Z,102294.66
2023-04-08T23:23:20.744Z,102282.63
2023-04-08T23:25:48.005Z,102287.81
2023-04-08T23:28:14.601Z,102283.50
2023-04-08T23:30:41.282Z,102277.50
2023-04-08T23:33:08.243Z,102281.00
2023-04-08T23:35:34.891Z,102277.56
2023-04-08T23:38:01.732Z,102271.50
2023-04-08T23:40:28.332Z,102275.00
2023-04-08T23:42:55.409Z,102274.16
2023-04-08T23:45:22.010Z,102275.88
2023-04-08T23:47:48.635Z,102283.75
2023-04-08T23:50:15.745Z,102289.88
2023-04-08T23:52:42.373Z,102282.94
2023-04-08T23:55:09.401Z,102283.81
2023-04-08T23:57:36.027Z,102284.69
